createdAt,value
2018-04-09T00:00:55.681Z,30.47
2018-04-09T00:03:23.978Z,32.37
2018-04-09T00:05:53.066Z,33.00
2018-04-09T00:08:22.112Z,30.83
2018-04-09T00:10:50.385Z,31.70
2018-04-09T00:13:18.698Z,32.03
2018-04-09T00:15:46.982Z,31.07
2018-04-09T00:18:16.074Z,33.77
2018-04-09T00:20:44.349Z,31.47
2018-04-09T00:23:12.644Z,32.43
2018-04-09T00:25:41.017Z,30.57
2018-04-09T00:28:09.283Z,31.47
2018-04-09T00:30:37.573Z,33.33
2018-04-09T00:33:05.868Z,33.00
2018-04-09T00:35:34.157Z,31.83
2018-04-09T00:38:02.465Z,30.97
2018-04-09T00:40:30.751Z,31.00
2018-04-09T00:42:59.025Z,30.00
2018-04-09T00:45:27.321Z,31.10
2018-04-09T00:47:55.589Z,30.57
2018-04-09T00:50:23.892Z,30.73
2018-04-09T00:52:52.156Z,30.63
2018-04-09T00:55:20.457Z,28.33
2018-04-09T00:57:48.731Z,31.17
2018-04-09T01:00:17.060Z,31.43
2018-04-09T01:02:45.336Z,30.13
2018-04-09T01:05:13.621Z,29.73
2018-04-09T01:07:41.917Z,29.73
2018-04-09T01:10:10.971Z,28.00
2018-04-09T01:12:39.307Z,32.10
2018-04-09T01:15:07.588Z,31.50
2018-04-09T01:17:35.864Z,29.53
2018-04-09T01:20:04.166Z,31.07
2018-04-09T01:22:32.435Z,30.23
2018-04-09T01:25:01.525Z,32.97
2018-04-09T01:27:30.573Z,30.77
2018-04-09T01:29:58.853Z,29.60
2018-04-09T01:32:27.154Z,32.13
2018-04-09T01:34:55.502Z,30.07
2018-04-09T01:37:23.809Z,27.17
2018-04-09T01:39:52.094Z,28.90
2018-04-09T01:42:20.358Z,32.20
2018-04-09T01:44:48.659Z,30.53
2018-04-09T01:47:16.933Z,28.70
2018-04-09T01:49:45.261Z,25.57
2018-04-09T01:52:13.558Z,29.60
2018-04-09T01:54:41.859Z,29.27
2018-04-09T01:57:10.158Z,30.37
2018-04-09T01:59:39.214Z,31.30
2018-04-09T02:02:07.536Z,31.40
2018-04-09T02:04:35.828Z,31.30
2018-04-09T02:07:04.878Z,31.13
2018-04-09T02:09:33.168Z,30.77
2018-04-09T02:12:01.440Z,30.80
2018-04-09T02:14:29.766Z,32.90
2018-04-09T02:16:58.027Z,32.87
2018-04-09T02:19:27.087Z,30.10
2018-04-09T02:21:55.479Z,30.53
2018-04-09T02:24:23.751Z,29.10
2018-04-09T02:26:52.086Z,32.80
2018-04-09T02:29:20.379Z,33.23
2018-04-09T02:31:48.642Z,32.70
2018-04-09T02:34:16.954Z,32.37
2018-04-09T02:36:45.229Z,30.60
2018-04-09T02:39:13.555Z,27.60
2018-04-09T02:41:42.580Z,31.30
2018-04-09T02:44:10.858Z,34.67
2018-04-09T02:46:39.158Z,31.10
2018-04-09T02:49:07.432Z,31.20
2018-04-09T02:51:35.756Z,31.23
2018-04-09T02:54:04.805Z,32.17
2018-04-09T02:56:33.095Z,30.23
2018-04-09T02:59:01.458Z,21.50
2018-04-09T03:01:29.781Z,31.60
2018-04-09T03:03:58.930Z,32.60
2018-04-09T03:06:27.212Z,31.50
2018-04-09T03:08:55.502Z,33.13
2018-04-09T03:11:23.802Z,32.93
2018-04-09T03:13:52.080Z,30.00
2018-04-09T03:16:20.412Z,32.60
2018-04-09T03:18:48.662Z,30.17
2018-04-09T03:21:17.726Z,28.07
2018-04-09T03:23:46.018Z,30.70
2018-04-09T03:26:14.297Z,28.93
2018-04-09T03:28:42.617Z,29.57
2018-04-09T03:31:11.714Z,28.07
2018-04-09T03:33:40.873Z,27.30
2018-04-09T03:36:09.960Z,29.10
2018-04-09T03:38:38.258Z,26.00
2018-04-09T03:41:06.561Z,28.77
2018-04-09T03:43:34.836Z,27.20
2018-04-09T03:46:03.122Z,29.20
2018-04-09T03:48:31.415Z,28.90
2018-04-09T03:50:59.711Z,30.07
2018-04-09T03:53:28.058Z,29.83
2018-04-09T03:55:56.406Z,31.30
2018-04-09T03:58:25.521Z,28.20
2018-04-09T04:00:53.757Z,29.20
2018-04-09T04:03:22.036Z,27.60
2018-04-09T04:05:50.382Z,29.17
2018-04-09T04:08:18.670Z,28.10
2018-04-09T04:10:48.174Z,25.73
2018-04-09T04:13:16.494Z,27.27
2018-04-09T04:15:57.243Z,27.30
2018-04-09T04:18:37.328Z,27.47
2018-04-09T04:21:18.266Z,27.03
2018-04-09T04:23:46.535Z,27.63
2018-04-09T04:26:14.798Z,26.73
2018-04-09T04:28:43.126Z,28.83
2018-04-09T04:31:11.424Z,31.03
2018-04-09T04:33:40.471Z,26.97
2018-04-09T04:36:08.758Z,27.90
2018-04-09T04:38:37.036Z,30.70
2018-04-09T04:41:05.362Z,30.80
2018-04-09T04:43:33.646Z,30.33
2018-04-09T04:46:01.946Z,27.90
2018-04-09T04:48:30.250Z,25.57
2018-04-09T04:50:58.532Z,2.73
2018-04-09T04:53:26.891Z,1.43
2018-04-09T04:55:55.500Z,0.90
2018-04-09T04:58:23.760Z,0.70
2018-04-09T05:00:52.066Z,0.60
2018-04-09T05:03:20.338Z,1.17
2018-04-09T05:05:48.627Z,0.73
2018-04-09T05:08:17.662Z,13.13
2018-04-09T05:10:45.994Z,20.30
2018-04-09T05:13:15.038Z,24.00
2018-04-09T05:15:43.302Z,2.07
2018-04-09T05:18:11.615Z,0.60
2018-04-09T05:20:39.910Z,0.60
2018-04-09T05:23:08.173Z,9.83
2018-04-09T05:25:36.470Z,0.80
2018-04-09T05:28:04.724Z,0.87
2018-04-09T05:30:33.061Z,0.77
2018-04-09T05:33:02.091Z,0.60
2018-04-09T05:35:30.356Z,0.73
2018-04-09T05:37:58.662Z,4.60
2018-04-09T05:40:26.930Z,0.90
2018-04-09T05:42:55.245Z,4.63
2018-04-09T05:45:24.297Z,0.63
2018-04-09T05:47:52.559Z,0.70
2018-04-09T05:50:20.877Z,0.60
2018-04-09T05:52:49.171Z,0.70
2018-04-09T05:55:17.456Z,1.77
2018-04-09T05:57:45.765Z,22.37
2018-04-09T06:00:14.089Z,26.73
2018-04-09T06:02:42.390Z,28.70
2018-04-09T06:05:11.447Z,30.37
2018-04-09T06:07:41.214Z,30.17
2018-04-09T06:10:09.525Z,29.87
2018-04-09T06:12:37.817Z,30.40
2018-04-09T06:15:06.165Z,32.40
2018-04-09T06:17:35.196Z,31.80
2018-04-09T06:20:03.513Z,30.90
2018-04-09T06:22:31.849Z,31.40
2018-04-09T06:25:00.139Z,33.50
2018-04-09T06:27:28.547Z,27.27
2018-04-09T06:29:56.834Z,33.60
2018-04-09T06:32:25.888Z,32.63
2018-04-09T06:34:54.210Z,25.00
2018-04-09T06:37:23.256Z,33.73
2018-04-09T06:39:51.585Z,33.40
2018-04-09T06:42:20.673Z,33.50
2018-04-09T06:44:49.807Z,34.37
2018-04-09T06:47:18.102Z,38.43
2018-04-09T06:49:47.125Z,34.40
2018-04-09T06:52:15.531Z,34.07
2018-04-09T06:54:44.572Z,33.57
2018-04-09T06:57:12.879Z,33.27
2018-04-09T06:59:41.993Z,36.87
2018-04-09T07:02:11.126Z,32.07
2018-04-09T07:04:39.452Z,35.97
2018-04-09T07:07:08.539Z,33.97
2018-04-09T07:09:36.891Z,35.50
2018-04-09T07:12:05.196Z,34.70
2018-04-09T07:14:33.609Z,34.17
2018-04-09T07:17:01.974Z,33.23
2018-04-09T07:19:30.393Z,32.20
2018-04-09T07:21:58.669Z,32.30
2018-04-09T07:24:27.667Z,33.17
2018-04-09T07:26:55.977Z,36.90
2018-04-09T07:29:24.261Z,34.20
2018-04-09T07:31:52.578Z,34.57
2018-04-09T07:34:21.693Z,33.87
2018-04-09T07:36:50.804Z,32.50
2018-04-09T07:39:19.070Z,33.47
2018-04-09T07:41:47.428Z,35.30
2018-04-09T07:44:16.532Z,33.93
2018-04-09T07:46:44.813Z,35.30
2018-04-09T07:49:14.074Z,34.13
2018-04-09T07:51:42.409Z,32.30
2018-04-09T07:54:10.733Z,34.00
2018-04-09T07:56:39.063Z,34.17
2018-04-09T07:59:07.362Z,31.70
2018-04-09T08:01:35.672Z,31.57
2018-04-09T08:04:03.975Z,35.23
2018-04-09T08:06:32.293Z,33.80
2018-04-09T08:09:00.591Z,31.10
2018-04-09T08:11:28.868Z,31.63
2018-04-09T08:13:57.191Z,32.97
2018-04-09T08:16:26.228Z,32.53
2018-04-09T08:18:54.613Z,32.17
2018-04-09T08:21:22.881Z,31.50
2018-04-09T08:23:51.177Z,31.50
2018-04-09T08:26:19.500Z,29.27
2018-04-09T08:28:48.548Z,29.27
2018-04-09T08:31:16.904Z,30.97
2018-04-09T08:33:45.199Z,26.30
2018-04-09T08:36:14.197Z,29.37
2018-04-09T08:38:42.519Z,28.47
2018-04-09T08:41:10.796Z,29.20
2018-04-09T08:43:39.126Z,29.60
2018-04-09T08:46:07.484Z,29.23
2018-04-09T08:48:35.785Z,28.40
2018-04-09T08:51:04.121Z,26.67
2018-04-09T08:53:33.178Z,26.67
2018-04-09T08:56:01.509Z,26.60
2018-04-09T08:58:29.806Z,27.33
2018-04-09T09:00:58.083Z,26.33
2018-04-09T09:03:26.413Z,24.73
2018-04-09T09:05:54.697Z,27.47
2018-04-09T09:08:23.061Z,26.47
2018-04-09T09:10:51.345Z,25.67
2018-04-09T09:13:19.621Z,25.83
2018-04-09T09:15:48.999Z,25.10
2018-04-09T09:18:17.288Z,24.37
2018-04-09T09:20:45.589Z,24.87
2018-04-09T09:23:13.933Z,24.73
2018-04-09T09:25:43.860Z,23.00
2018-04-09T09:28:12.211Z,21.03
2018-04-09T09:30:40.511Z,21.70
2018-04-09T09:33:08.790Z,24.00
2018-04-09T09:35:37.112Z,21.73
2018-04-09T09:38:06.164Z,20.80
2018-04-09T09:40:34.500Z,22.87
2018-04-09T09:43:04.285Z,20.40
2018-04-09T09:45:32.574Z,23.07
2018-04-09T09:48:01.695Z,23.07
2018-04-09T09:50:30.741Z,20.90
2018-04-09T09:52:59.155Z,19.90
2018-04-09T09:55:28.211Z,17.87
2018-04-09T09:57:56.570Z,21.90
2018-04-09T10:00:30.658Z,17.27
2018-04-09T10:02:58.951Z,17.20
2018-04-09T10:05:27.279Z,17.83
2018-04-09T10:07:55.571Z,16.93
2018-04-09T10:10:24.647Z,14.30
2018-04-09T10:12:52.958Z,14.90
2018-04-09T10:15:22.020Z,15.30
2018-04-09T10:17:50.371Z,16.00
2018-04-09T10:20:18.690Z,10.90
2018-04-09T10:22:46.960Z,11.60
2018-04-09T10:25:15.268Z,11.50
2018-04-09T10:27:44.306Z,10.73
2018-04-09T10:30:14.645Z,9.47
2018-04-09T10:32:45.811Z,11.97
2018-04-09T10:35:14.151Z,12.37
2018-04-09T10:37:42.488Z,11.70
2018-04-09T10:40:10.762Z,10.53
2018-04-09T10:42:39.863Z,11.30
2018-04-09T10:45:08.910Z,12.20
2018-04-09T10:47:37.212Z,12.83
2018-04-09T10:50:05.521Z,14.23
2018-04-09T10:52:34.584Z,13.30
2018-04-09T10:55:02.913Z,13.90
2018-04-09T10:57:32.004Z,13.07
2018-04-09T11:00:00.383Z,14.37
2018-04-09T11:02:29.446Z,13.77
2018-04-09T11:04:57.714Z,14.23
2018-04-09T11:07:26.020Z,13.20
2018-04-09T11:09:55.102Z,15.87
2018-04-09T11:12:23.442Z,13.07
2018-04-09T11:14:51.759Z,12.70
2018-04-09T11:17:20.055Z,12.43
2018-04-09T11:19:49.175Z,10.40
2018-04-09T11:22:17.450Z,12.17
2018-04-09T11:24:45.757Z,11.83
2018-04-09T11:27:14.068Z,12.77
2018-04-09T11:29:42.354Z,13.23
2018-04-09T11:32:12.270Z,11.37
2018-04-09T11:34:41.316Z,11.33
2018-04-09T11:37:09.660Z,11.93
2018-04-09T11:39:37.921Z,9.60
2018-04-09T11:42:06.215Z,15.30
2018-04-09T11:44:35.343Z,11.37
2018-04-09T11:47:03.617Z,12.00
2018-04-09T11:49:31.910Z,11.10
2018-04-09T11:52:00.229Z,13.10
2018-04-09T11:54:28.574Z,11.53
2018-04-09T11:56:56.925Z,11.63
2018-04-09T11:59:25.251Z,10.47
2018-04-09T12:01:53.512Z,10.53
2018-04-09T12:04:21.816Z,10.33
2018-04-09T12:06:50.097Z,9.87
2018-04-09T12:09:18.428Z,11.07
2018-04-09T12:11:46.733Z,11.73
2018-04-09T12:14:15.019Z,9.60
2018-04-09T12:16:43.308Z,9.70
2018-04-09T12:19:11.585Z,10.47
2018-04-09T12:21:39.917Z,9.77
2018-04-09T12:24:08.235Z,10.40
2018-04-09T12:26:36.511Z,10.90
2018-04-09T12:29:04.851Z,10.60
2018-04-09T12:31:33.166Z,11.40
2018-04-09T12:34:01.459Z,9.47
2018-04-09T12:36:29.784Z,10.63
2018-04-09T12:38:58.863Z,11.63
2018-04-09T12:41:27.912Z,11.70
2018-04-09T12:43:56.265Z,11.87
2018-04-09T12:46:24.551Z,11.37
2018-04-09T12:48:52.841Z,12.03
2018-04-09T12:51:21.183Z,18.03
2018-04-09T12:53:50.258Z,17.43
2018-04-09T12:56:18.602Z,14.50
2018-04-09T12:58:46.880Z,9.63
2018-04-09T13:01:15.225Z,9.50
2018-04-09T13:03:43.586Z,10.90
2018-04-09T13:06:11.902Z,10.80
2018-04-09T13:08:40.178Z,11.30
2018-04-09T13:11:08.501Z,10.40
2018-04-09T13:13:37.569Z,10.10
2018-04-09T13:16:05.889Z,10.30
2018-04-09T13:18:34.936Z,10.07
2018-04-09T13:21:03.217Z,10.47
2018-04-09T13:23:31.612Z,10.10
2018-04-09T13:25:59.895Z,10.80
2018-04-09T13:28:28.170Z,10.60
2018-04-09T13:30:56.488Z,10.20
2018-04-09T13:33:24.780Z,9.77
2018-04-09T13:35:53.058Z,9.23
2018-04-09T13:38:21.396Z,9.40
2018-04-09T13:40:49.831Z,8.80
2018-04-09T13:43:18.980Z,9.20
2018-04-09T13:45:48.047Z,9.37
2018-04-09T13:48:16.322Z,8.27
2018-04-09T13:50:44.624Z,8.47
2018-04-09T13:53:12.922Z,8.50
2018-04-09T13:55:42.018Z,8.00
2018-04-09T13:58:11.079Z,7.90
2018-04-09T14:00:39.386Z,7.33
2018-04-09T14:03:08.533Z,8.50
2018-04-09T14:05:36.819Z,8.10
2018-04-09T14:08:05.140Z,8.00
2018-04-09T14:10:34.201Z,7.53
2018-04-09T14:13:02.481Z,7.83
2018-04-09T14:15:30.937Z,7.17
2018-04-09T14:18:00.308Z,7.83
2018-04-09T14:20:29.420Z,9.33
2018-04-09T14:22:57.702Z,7.57
2018-04-09T14:25:25.988Z,7.20
2018-04-09T14:27:54.298Z,8.60
2018-04-09T14:30:22.600Z,8.00
2018-04-09T14:32:50.933Z,8.30
2018-04-09T14:35:19.271Z,7.83
2018-04-09T14:37:47.768Z,8.20
2018-04-09T14:40:16.098Z,8.30
2018-04-09T14:42:44.385Z,7.73
2018-04-09T14:45:12.770Z,8.00
2018-04-09T14:47:41.064Z,8.50
2018-04-09T14:50:10.218Z,9.50
2018-04-09T14:52:38.537Z,8.67
2018-04-09T14:55:06.870Z,9.83
2018-04-09T14:57:35.275Z,9.70
2018-04-09T15:00:03.662Z,8.90
2018-04-09T15:02:32.006Z,8.80
2018-04-09T15:05:01.107Z,9.07
2018-04-09T15:07:29.391Z,10.00
2018-04-09T15:09:57.714Z,10.23
2018-04-09T15:12:27.056Z,9.30
2018-04-09T15:14:55.419Z,9.20
2018-04-09T15:17:23.697Z,9.57
2018-04-09T15:19:51.980Z,10.40
2018-04-09T15:22:20.444Z,10.97
2018-04-09T15:24:49.577Z,10.40
2018-04-09T15:27:17.900Z,9.77
2018-04-09T15:29:48.112Z,10.13
2018-04-09T15:32:17.113Z,9.80
2018-04-09T15:34:45.427Z,10.87
2018-04-09T15:37:13.887Z,11.03
2018-04-09T15:39:42.212Z,10.10
2018-04-09T15:42:10.511Z,11.10
2018-04-09T15:44:38.835Z,10.10
2018-04-09T15:47:07.937Z,10.17
2018-04-09T15:49:37.053Z,10.30
2018-04-09T15:52:05.382Z,10.93
2018-04-09T15:54:33.673Z,11.10
2018-04-09T15:57:02.048Z,11.70
2018-04-09T15:59:30.387Z,11.27
2018-04-09T16:01:58.677Z,11.67
2018-04-09T16:04:26.975Z,12.50
2018-04-09T16:06:55.342Z,13.00
2018-04-09T16:09:23.790Z,12.70
2018-04-09T16:11:52.148Z,12.87
2018-04-09T16:14:20.470Z,11.83
2018-04-09T16:16:48.751Z,11.53
2018-04-09T16:19:18.201Z,11.47
2018-04-09T16:21:47.265Z,12.23
2018-04-09T16:24:15.625Z,11.87
2018-04-09T16:26:43.938Z,14.70
2018-04-09T16:29:12.320Z,13.10
2018-04-09T16:31:40.641Z,11.40
2018-04-09T16:34:08.989Z,11.33
2018-04-09T16:36:38.137Z,12.10
2018-04-09T16:39:06.542Z,11.57
2018-04-09T16:41:34.845Z,11.87
2018-04-09T16:44:03.922Z,12.30
2018-04-09T16:46:32.296Z,11.10
2018-04-09T16:49:01.279Z,10.90
2018-04-09T16:51:30.354Z,11.17
2018-04-09T16:53:58.734Z,10.90
2018-04-09T16:56:27.056Z,11.17
2018-04-09T16:58:55.368Z,11.90
2018-04-09T17:01:23.694Z,10.37
2018-04-09T17:03:52.219Z,10.13
2018-04-09T17:06:20.842Z,11.83
2018-04-09T17:08:49.167Z,10.87
2018-04-09T17:11:17.459Z,11.40
2018-04-09T17:13:46.583Z,12.03
2018-04-09T17:16:14.883Z,10.83
2018-04-09T17:18:43.222Z,11.00
2018-04-09T17:21:12.383Z,11.10
2018-04-09T17:23:41.517Z,11.70
2018-04-09T17:26:10.681Z,10.80
2018-04-09T17:28:39.745Z,11.70
2018-04-09T17:31:08.125Z,11.07
2018-04-09T17:33:36.447Z,12.70
2018-04-09T17:36:04.746Z,11.73
2018-04-09T17:38:33.833Z,11.63
2018-04-09T17:41:02.912Z,10.80
2018-04-09T17:43:31.270Z,12.17
2018-04-09T17:45:59.665Z,11.60
2018-04-09T17:48:27.982Z,10.27
2018-04-09T17:50:57.235Z,10.70
2018-04-09T17:53:25.613Z,11.30
2018-04-09T17:55:59.615Z,11.77
2018-04-09T17:58:28.935Z,11.30
2018-04-09T18:00:57.265Z,12.73
2018-04-09T18:03:25.609Z,12.93
2018-04-09T18:05:53.916Z,14.43
2018-04-09T18:08:22.502Z,12.97
2018-04-09T18:10:51.673Z,11.10
2018-04-09T18:13:20.189Z,11.00
2018-04-09T18:15:48.669Z,11.03
2018-04-09T18:18:17.874Z,10.73
2018-04-09T18:20:46.266Z,10.77
2018-04-09T18:23:14.602Z,11.40
2018-04-09T18:25:43.078Z,11.35
2018-04-09T18:28:11.420Z,10.43
2018-04-09T18:30:39.724Z,12.10
2018-04-09T18:33:08.098Z,12.63
2018-04-09T18:35:36.453Z,11.77
2018-04-09T18:38:05.016Z,11.63
2018-04-09T18:40:34.240Z,11.60
2018-04-09T18:43:02.628Z,12.60
2018-04-09T18:45:30.996Z,11.90
2018-04-09T18:47:59.370Z,12.83
2018-04-09T18:50:27.824Z,11.57
2018-04-09T18:52:56.298Z,12.93
2018-04-09T18:55:24.874Z,13.43
2018-04-09T18:57:53.224Z,15.70
2018-04-09T19:00:21.801Z,14.80
2018-04-09T19:02:50.201Z,14.33
2018-04-09T19:05:18.541Z,14.23
2018-04-09T19:07:47.050Z,15.20
2018-04-09T19:10:15.441Z,14.80
2018-04-09T19:12:44.014Z,18.13
2018-04-09T19:15:12.509Z,20.27
2018-04-09T19:17:41.625Z,14.97
2018-04-09T19:20:10.068Z,14.70
2018-04-09T19:22:38.509Z,12.50
2018-04-09T19:25:07.759Z,12.50
2018-04-09T19:27:36.989Z,11.77
2018-04-09T19:30:05.436Z,12.03
2018-04-09T19:32:34.832Z,11.87
2018-04-09T19:35:09.048Z,11.80
2018-04-09T19:37:43.006Z,12.80
2018-04-09T19:40:16.996Z,13.10
2018-04-09T19:42:45.324Z,13.80
2018-04-09T19:45:13.626Z,12.90
2018-04-09T19:47:42.509Z,14.07
2018-04-09T19:50:12.714Z,14.30
2018-04-09T19:52:41.890Z,13.87
2018-04-09T19:55:10.337Z,13.40
2018-04-09T19:57:38.752Z,14.80
2018-04-09T20:00:08.941Z,13.77
2018-04-09T20:02:37.320Z,14.80
2018-04-09T20:05:05.715Z,23.90
2018-04-09T20:07:34.344Z,15.60
2018-04-09T20:10:02.736Z,15.00
2018-04-09T20:12:31.189Z,15.43
2018-04-09T20:14:59.550Z,14.83
2018-04-09T20:17:27.913Z,14.97
2018-04-09T20:19:56.342Z,16.00
2018-04-09T20:22:25.588Z,15.47
2018-04-09T20:24:54.052Z,16.00
2018-04-09T20:27:22.429Z,16.40
2018-04-09T20:29:50.776Z,16.10
2018-04-09T20:32:19.926Z,16.93
2018-04-09T20:34:48.213Z,15.00
2018-04-09T20:37:16.516Z,15.97
2018-04-09T20:39:44.867Z,16.13
2018-04-09T20:42:13.189Z,15.10
2018-04-09T20:44:42.305Z,15.10
2018-04-09T20:47:10.619Z,15.87
2018-04-09T20:49:38.996Z,14.70
2018-04-09T20:52:07.320Z,15.63
2018-04-09T20:54:35.632Z,17.40
2018-04-09T20:57:03.932Z,16.20
2018-04-09T20:59:32.289Z,16.20
2018-04-09T21:02:00.638Z,16.00
2018-04-09T21:04:30.596Z,17.50
2018-04-09T21:06:58.909Z,15.93
2018-04-09T21:09:27.200Z,16.37
2018-04-09T21:11:55.532Z,17.30
2018-04-09T21:14:23.859Z,15.90
2018-04-09T21:16:52.203Z,17.07
2018-04-09T21:19:20.537Z,17.70
2018-04-09T21:21:49.634Z,16.03
2018-04-09T21:24:18.746Z,17.70
2018-04-09T21:26:47.085Z,17.60
2018-04-09T21:29:15.460Z,18.80
2018-04-09T21:31:43.841Z,18.10
2018-04-09T21:34:12.185Z,18.37
2018-04-09T21:36:40.483Z,18.33
2018-04-09T21:39:09.594Z,16.93
2018-04-09T21:41:37.938Z,18.07
2018-04-09T21:44:06.520Z,18.93
2018-04-09T21:46:34.909Z,17.87
2018-04-09T21:49:03.188Z,19.30
2018-04-09T21:51:31.506Z,18.70
2018-04-09T21:53:59.841Z,18.27
2018-04-09T21:56:28.491Z,16.90
2018-04-09T21:58:57.699Z,18.80
2018-04-09T22:01:26.782Z,18.40
2018-04-09T22:03:55.105Z,19.00
2018-04-09T22:06:23.555Z,17.70
2018-04-09T22:08:52.757Z,18.77
2018-04-09T22:11:22.292Z,18.33
2018-04-09T22:13:51.422Z,17.10
2018-04-09T22:16:19.861Z,18.17
2018-04-09T22:18:48.165Z,17.27
2018-04-09T22:21:16.598Z,19.73
2018-04-09T22:23:45.200Z,18.03
2018-04-09T22:26:13.544Z,19.00
2018-04-09T22:28:42.013Z,21.67
2018-04-09T22:31:10.537Z,22.47
2018-04-09T22:33:38.948Z,20.10
2018-04-09T22:36:08.037Z,20.87
2018-04-09T22:38:36.653Z,19.33
2018-04-09T22:41:05.148Z,19.83
2018-04-09T22:43:33.441Z,17.53
2018-04-09T22:46:02.548Z,19.40
2018-04-09T22:48:30.844Z,18.10
2018-04-09T22:50:59.124Z,19.07
2018-04-09T22:53:27.460Z,19.93
2018-04-09T22:55:55.749Z,21.13
2018-04-09T22:58:24.075Z,20.00
2018-04-09T23:00:52.364Z,21.07
2018-04-09T23:03:20.647Z,20.93
2018-04-09T23:05:49.063Z,20.50
2018-04-09T23:08:17.374Z,21.00
2018-04-09T23:10:45.717Z,18.77
2018-04-09T23:13:14.802Z,19.17
2018-04-09T23:15:43.126Z,20.67
2018-04-09T23:18:11.432Z,18.83
2018-04-09T23:20:39.716Z,20.30
2018-04-09T23:23:08.052Z,19.90
2018-04-09T23:25:36.385Z,19.80
2018-04-09T23:28:04.675Z,19.03
2018-04-09T23:30:33.001Z,19.83
2018-04-09T23:33:01.305Z,20.33
2018-04-09T23:35:29.630Z,18.30
2018-04-09T23:37:58.995Z,20.50
2018-04-09T23:40:27.270Z,20.37
2018-04-09T23:42:55.589Z,19.03
2018-04-09T23:45:24.628Z,19.03
2018-04-09T23:47:52.959Z,19.70
2018-04-09T23:50:21.992Z,18.80
2018-04-09T23:52:50.447Z,20.00
2018-04-09T23:55:18.791Z,20.33
2018-04-09T23:57:47.212Z,19.83
